Time;durP1;ratioP1;P1;durP2;ratioP2;P2;SDS_P1;SDS_P2;PMS_P1;PMS_P2;Temp;Humidity;BMP_temperature;BMP_pressure;BME280_temperature;BME280_humidity;BME280_pressure;Samples;Min_cycle;Max_cycle;Signal;HPM_P1;HPM_P2
2021/06/05 00:01:44;;;;;;;12.02;2.28;;;;;;;14.96;48.09;100128.59;5099118;28;20071;-80
2021/06/05 00:04:11;;;;;;;12.43;2.78;;;;;;;14.86;47.96;100130.38;5065473;28;20506;-80
2021/06/05 00:06:37;;;;;;;10.20;2.15;;;;;;;14.88;48.29;100135.63;5099154;28;20039;-80
2021/06/05 00:09:04;;;;;;;6.25;2.50;;;;;;;14.82;48.20;100126.25;5134071;28;20043;-81
2021/06/05 00:11:30;;;;;;;5.95;2.40;;;;;;;14.85;48.18;100130.50;5098950;28;20031;-80
2021/06/05 00:13:59;;;;;;;8.73;2.28;;;;;;;14.90;48.13;100136.38;5133663;28;20406;-80
2021/06/05 00:16:36;;;;;;;9.43;2.30;;;;;;;14.83;48.23;100133.34;5134403;28;20062;-81
2021/06/05 00:19:02;;;;;;;11.80;2.88;;;;;;;14.80;48.62;100142.50;5082640;28;20031;-80
2021/06/05 00:21:28;;;;;;;5.60;2.80;;;;;;;14.73;48.46;100138.63;5133871;28;20084;-81
2021/06/05 00:23:54;;;;;;;7.15;2.30;;;;;;;14.72;48.77;100139.63;5098611;28;20188;-81
2021/06/05 00:26:20;;;;;;;10.50;2.78;;;;;;;14.71;48.64;100137.06;5115496;28;20051;-80
2021/06/05 00:28:46;;;;;;;7.85;2.65;;;;;;;14.67;48.37;100136.47;5099453;27;20553;-80
2021/06/05 00:31:12;;;;;;;7.97;2.50;;;;;;;14.70;48.23;100138.88;5086250;27;20051;-80
2021/06/05 00:33:38;;;;;;;14.52;2.55;;;;;;;14.65;48.43;100130.34;5138687;27;20115;-81
2021/06/05 00:36:07;;;;;;;5.43;2.00;;;;;;;14.67;48.47;100136.47;5086384;27;20490;-80
2021/06/05 00:38:34;;;;;;;4.63;2.17;;;;;;;14.68;48.69;100142.72;5104057;27;20047;-79
2021/06/05 00:41:00;;;;;;;14.75;2.50;;;;;;;14.70;48.70;100135.34;5102889;27;20066;-80
2021/06/05 00:43:30;;;;;;;7.72;3.08;;;;;;;14.71;48.36;100137.94;5102592;27;20046;-81
2021/06/05 00:45:58;;;;;;;9.57;2.03;;;;;;;14.72;48.55;100136.94;5102810;27;20043;-81
2021/06/05 00:48:24;;;;;;;11.93;2.83;;;;;;;14.70;48.44;100133.50;5119296;27;20126;-79
2021/06/05 00:50:56;;;;;;;8.73;2.28;;;;;;;14.74;48.38;100142.16;5103003;27;20138;-82
2021/06/05 00:53:26;;;;;;;8.27;2.23;;;;;;;14.73;48.61;100135.09;5069911;27;20085;-81
2021/06/05 00:55:54;;;;;;;4.63;2.10;;;;;;;14.76;48.18;100138.38;5085573;27;20043;-81
2021/06/05 00:58:23;;;;;;;5.65;1.77;;;;;;;14.81;48.23;100141.53;5070292;27;20074;-81
2021/06/05 01:01:05;;;;;;;6.93;1.95;;;;;;;14.80;47.94;100134.44;5119228;27;20039;-81
2021/06/05 01:03:31;;;;;;;9.07;2.03;;;;;;;14.88;47.90;100143.69;5085426;27;20050;-83
2021/06/05 01:06:00;;;;;;;14.30;2.47;;;;;;;14.98;47.88;100141.94;5102313;27;20058;-81
2021/06/05 01:08:40;;;;;;;5.35;2.30;;;;;;;15.02;47.71;100140.69;5086002;27;20042;-81
2021/06/05 01:11:45;;;;;;;3.08;2.10;;;;;;;15.02;47.76;100138.00;5070210;27;20070;-81
2021/06/05 01:14:15;;;;;;;10.25;2.72;;;;;;;15.04;47.57;100146.78;5102018;27;20043;-81
2021/06/05 01:16:42;;;;;;;10.02;2.58;;;;;;;15.09;47.52;100152.63;5137111;27;20065;-80
2021/06/05 01:19:17;;;;;;;3.90;1.58;;;;;;;15.15;46.86;100144.00;5068946;27;20054;-80
2021/06/05 01:22:04;;;;;;;8.63;2.28;;;;;;;15.21;47.04;100146.19;5101574;27;20042;-78
2021/06/05 01:24:48;;;;;;;3.75;2.20;;;;;;;15.23;46.84;100137.97;5118696;27;20070;-77
2021/06/05 01:27:26;;;;;;;10.30;1.95;;;;;;;15.38;46.27;100151.94;5069845;27;20043;-77
2021/06/05 01:29:57;;;;;;;11.43;2.00;;;;;;;15.48;46.42;100152.84;5069115;27;20039;-80
2021/06/05 01:32:24;;;;;;;10.37;2.30;;;;;;;15.57;46.34;100143.97;5085015;27;20410;-81
2021/06/05 01:34:50;;;;;;;6.82;2.08;;;;;;;15.59;46.42;100144.69;5084824;27;20767;-80
2021/06/05 01:37:21;;;;;;;6.13;2.10;;;;;;;15.58;45.94;100139.44;5102221;27;20046;-81
2021/06/05 01:39:53;;;;;;;10.10;2.42;;;;;;;15.54;46.03;100141.53;5086468;27;20055;-81
2021/06/05 01:42:32;;;;;;;10.30;2.38;;;;;;;15.48;46.01;100136.69;5100885;27;20091;-80
2021/06/05 01:44:59;;;;;;;5.32;2.15;;;;;;;15.35;45.77;100144.16;5086265;27;20039;-80
2021/06/05 01:47:25;;;;;;;10.55;2.05;;;;;;;15.41;46.06;100133.66;5101343;27;20051;-81
2021/06/05 01:49:52;;;;;;;4.78;1.98;;;;;;;15.47;45.30;100137.69;5085101;27;20035;-81
2021/06/05 01:52:21;;;;;;;8.73;2.45;;;;;;;15.49;45.56;100139.22;5097539;28;20059;-79
2021/06/05 01:55:02;;;;;;;5.15;2.33;;;;;;;15.69;45.65;100139.38;5081651;28;20043;-79
2021/06/05 01:57:34;;;;;;;6.13;2.25;;;;;;;15.83;45.58;100135.44;5083693;28;20448;-79
2021/06/05 02:00:29;;;;;;;15.07;2.72;;;;;;;15.98;45.61;100144.84;5085512;28;20048;-80
2021/06/05 02:02:58;;;;;;;7.15;2.53;;;;;;;16.10;45.31;100145.56;5097814;28;20107;-80
2021/06/05 02:05:31;;;;;;;8.30;2.40;;;;;;;16.14;45.31;100152.44;5082086;28;20047;-80
2021/06/05 02:08:02;;;;;;;5.35;2.30;;;;;;;16.18;45.17;100157.41;5114289;28;20039;-82
2021/06/05 02:10:33;;;;;;;12.23;2.75;;;;;;;16.16;45.45;100156.66;5114089;28;20059;-81
2021/06/05 02:13:03;;;;;;;14.73;2.40;;;;;;;16.26;45.91;100165.63;5097569;28;20074;-79
2021/06/05 02:15:44;;;;;;;5.38;2.47;;;;;;;16.31;45.64;100167.91;5098520;28;20054;-79
2021/06/05 02:18:15;;;;;;;9.43;2.63;;;;;;;16.30;45.16;100160.81;5081974;28;20047;-81
2021/06/05 02:20:50;;;;;;;13.95;2.22;;;;;;;16.37;44.73;100169.22;5080824;28;20077;-79
2021/06/05 02:23:20;;;;;;;5.95;2.83;;;;;;;16.39;45.07;100168.06;5081230;28;20046;-82
2021/06/05 02:25:46;;;;;;;10.02;2.70;;;;;;;16.35;45.16;100160.41;5097419;28;20043;-80
2021/06/05 02:28:13;;;;;;;11.25;2.50;;;;;;;16.36;44.50;100156.69;5097095;28;20047;-81
2021/06/05 02:30:42;;;;;;;8.82;1.98;;;;;;;16.38;44.84;100176.31;5081057;28;20507;-80
2021/06/05 02:33:08;;;;;;;9.02;2.63;;;;;;;16.45;44.40;100166.66;5063383;28;20112;-80
2021/06/05 02:35:41;;;;;;;8.48;2.10;;;;;;;16.54;44.42;100173.91;5081808;28;20104;-80
2021/06/05 02:38:20;;;;;;;5.57;2.40;;;;;;;16.58;44.53;100172.63;5081830;28;20043;-81
2021/06/05 02:40:46;;;;;;;13.02;2.33;;;;;;;16.62;44.25;100174.06;5113887;28;20050;-81
2021/06/05 02:43:18;;;;;;;5.13;1.92;;;;;;;16.63;43.94;100180.31;5096833;28;20039;-80
2021/06/05 02:45:46;;;;;;;10.40;2.70;;;;;;;16.70;44.37;100176.06;5080746;28;20059;-82
2021/06/05 02:48:12;;;;;;;7.13;2.13;;;;;;;16.75;43.84;100179.22;5098223;28;20055;-82
2021/06/05 02:50:51;;;;;;;10.85;2.67;;;;;;;16.79;44.10;100182.50;5082855;28;20070;-82
2021/06/05 02:53:18;;;;;;;11.60;2.08;;;;;;;16.83;44.21;100181.22;5076981;28;20044;-78
2021/06/05 02:55:44;;;;;;;5.80;2.20;;;;;;;16.83;43.73;100163.16;5076476;28;20075;-81
2021/06/05 02:58:13;;;;;;;9.45;2.47;;;;;;;16.93;43.81;100176.66;5026075;28;20046;-80
2021/06/05 03:00:46;;;;;;;11.40;2.72;;;;;;;16.97;43.92;100172.69;5043650;28;20044;-82
2021/06/05 03:03:16;;;;;;;18.55;2.55;;;;;;;17.07;43.84;100180.75;5044093;28;20055;-82
2021/06/05 03:05:43;;;;;;;6.72;2.40;;;;;;;17.20;43.58;100179.47;5025968;28;20048;-79
2021/06/05 03:08:13;;;;;;;9.48;2.75;;;;;;;17.26;43.13;100177.16;5060559;28;20130;-81
2021/06/05 03:10:40;;;;;;;7.50;2.45;;;;;;;17.42;43.25;100185.53;5042861;28;20410;-78
2021/06/05 03:13:07;;;;;;;9.05;2.53;;;;;;;17.48;42.97;100184.94;5093867;28;20051;-79
2021/06/05 03:15:33;;;;;;;11.45;3.22;;;;;;;17.62;43.26;100183.63;5042644;28;20119;-77
2021/06/05 03:18:00;;;;;;;9.60;2.55;;;;;;;17.80;42.87;100186.44;5093633;28;20044;-74
2021/06/05 03:20:36;;;;;;;11.48;2.75;;;;;;;17.82;42.06;100184.44;5058712;28;20412;-75
2021/06/05 03:23:03;;;;;;;16.27;2.58;;;;;;;17.87;42.32;100183.00;5093625;28;20051;-77
2021/06/05 03:25:32;;;;;;;6.20;2.08;;;;;;;17.98;42.11;100190.06;5058582;28;20051;-76
2021/06/05 03:27:59;;;;;;;5.50;2.50;;;;;;;17.93;41.87;100184.25;5057096;28;20039;-77
2021/06/05 03:30:27;;;;;;;9.18;2.30;;;;;;;18.08;42.13;100188.16;5064648;28;20048;-77
2021/06/05 03:32:55;;;;;;;6.68;2.15;;;;;;;18.17;41.27;100187.25;5055337;28;20056;-75
2021/06/05 03:35:21;;;;;;;6.78;2.05;;;;;;;18.29;41.27;100193.31;5038803;28;20036;-76
2021/06/05 03:37:47;;;;;;;5.82;1.95;;;;;;;18.30;39.85;100183.34;5054875;28;20055;-76
2021/06/05 03:40:16;;;;;;;7.97;2.63;;;;;;;18.24;39.83;100194.75;5071707;28;20067;-76
2021/06/05 03:42:42;;;;;;;19.13;3.10;;;;;;;18.23;39.31;100193.06;5021484;28;20051;-76
2021/06/05 03:45:08;;;;;;;5.57;1.60;;;;;;;18.16;38.37;100199.06;5054913;28;20534;-76
2021/06/05 03:47:35;;;;;;;15.25;1.90;;;;;;;18.15;38.36;100197.38;5055105;28;20351;-76
2021/06/05 03:50:06;;;;;;;10.75;1.98;;;;;;;18.41;38.29;100196.66;5038787;28;20437;-79
2021/06/05 03:52:32;;;;;;;10.57;2.03;;;;;;;18.50;38.09;100189.47;5054220;28;20070;-74
2021/06/05 03:54:59;;;;;;;14.23;2.50;;;;;;;18.52;38.51;100193.72;5078491;28;20035;-76
2021/06/05 03:57:25;;;;;;;12.25;1.83;;;;;;;18.47;38.20;100196.06;5113314;28;20134;-75
2021/06/05 03:59:53;;;;;;;8.35;1.95;;;;;;;18.52;38.94;100201.84;5078590;28;20038;-76
2021/06/05 04:02:20;;;;;;;7.20;2.65;;;;;;;18.53;39.01;100194.56;5078940;28;20058;-75
2021/06/05 04:04:46;;;;;;;7.65;2.13;;;;;;;18.66;39.28;100189.66;5078054;28;20435;-75
2021/06/05 04:07:12;;;;;;;11.95;1.90;;;;;;;18.79;38.75;100189.28;5078231;28;20043;-76
2021/06/05 04:09:40;;;;;;;8.13;2.58;;;;;;;19.03;38.55;100197.66;5095594;28;20050;-77
2021/06/05 04:12:09;;;;;;;12.95;1.55;;;;;;;19.17;37.05;100202.47;5095024;28;20531;-76
2021/06/05 04:14:35;;;;;;;11.85;2.20;;;;;;;19.40;36.78;100183.00;5044893;28;20514;-76
2021/06/05 04:17:01;;;;;;;10.30;1.88;;;;;;;19.34;36.14;100197.22;5095025;28;20456;-76
2021/06/05 04:19:27;;;;;;;5.25;1.50;;;;;;;19.45;35.70;100196.09;5113021;28;20051;-75
2021/06/05 04:21:53;;;;;;;17.17;1.90;;;;;;;19.58;35.67;100189.22;5094678;28;20442;-78
2021/06/05 04:24:19;;;;;;;10.02;1.48;;;;;;;19.77;34.87;100187.31;5095001;28;20043;-76
2021/06/05 04:26:45;;;;;;;6.15;1.60;;;;;;;19.86;35.24;100184.50;5095126;28;20108;-74
2021/06/05 04:29:11;;;;;;;9.05;1.50;;;;;;;20.26;35.27;100192.97;5113701;28;20094;-76
2021/06/05 04:31:37;;;;;;;13.95;1.67;;;;;;;20.61;34.60;100181.03;5061229;28;20039;-75
2021/06/05 04:34:03;;;;;;;6.53;1.65;;;;;;;20.82;34.67;100188.72;5077712;28;20114;-77
2021/06/05 04:36:29;;;;;;;7.57;3.33;;;;;;;21.01;34.60;100185.66;5077738;28;20422;-79
2021/06/05 04:38:55;;;;;;;9.23;1.98;;;;;;;21.02;34.55;100184.63;5077798;28;20493;-75
2021/06/05 04:41:20;;;;;;;6.85;1.75;;;;;;;21.05;33.39;100176.13;5113156;28;20049;-76
2021/06/05 04:43:47;;;;;;;6.05;1.38;;;;;;;20.93;33.12;100182.94;5094405;28;20047;-75
2021/06/05 04:46:13;;;;;;;12.98;1.80;;;;;;;20.81;33.07;100176.16;5044654;28;20494;-75
2021/06/05 04:48:40;;;;;;;5.53;1.60;;;;;;;20.91;33.26;100181.41;5081976;28;20048;-76
2021/06/05 04:51:06;;;;;;;8.05;1.50;;;;;;;20.97;33.68;100168.00;5094000;28;21781;-74
2021/06/05 04:53:32;;;;;;;17.40;1.73;;;;;;;20.78;33.16;100171.03;5094642;28;20043;-74
2021/06/05 04:55:58;;;;;;;7.60;1.55;;;;;;;21.02;33.62;100168.31;5112300;28;20043;-74
2021/06/05 04:58:24;;;;;;;2.58;1.13;;;;;;;21.25;33.03;100167.63;5060790;28;20044;-75
2021/06/05 05:00:51;;;;;;;5.95;1.40;;;;;;;21.48;33.14;100165.94;5077507;28;20050;-77
2021/06/05 05:03:18;;;;;;;7.63;1.67;;;;;;;21.61;31.82;100170.00;5060870;28;20035;-77
2021/06/05 05:05:44;;;;;;;6.93;1.60;;;;;;;21.54;31.78;100165.22;5113306;28;20040;-77
2021/06/05 05:08:12;;;;;;;2.72;1.42;;;;;;;21.43;31.54;100173.75;5113125;28;20127;-77
2021/06/05 05:10:40;;;;;;;5.30;1.30;;;;;;;21.31;32.34;100164.22;5094744;28;20047;-78
2021/06/05 05:13:06;;;;;;;5.90;1.30;;;;;;;21.36;32.06;100167.31;5094633;28;20050;-78
2021/06/05 05:15:32;;;;;;;4.35;1.30;;;;;;;21.36;31.86;100167.31;5094648;28;20035;-79
2021/06/05 05:17:59;;;;;;;1.30;1.20;;;;;;;21.02;31.89;100162.88;5097941;28;20525;-80
2021/06/05 05:20:28;;;;;;;4.75;1.33;;;;;;;21.02;31.62;100160.16;5097702;28;20043;-77
2021/06/05 05:22:54;;;;;;;4.07;1.40;;;;;;;20.88;32.14;100165.47;5081115;28;20470;-79
2021/06/05 05:25:20;;;;;;;10.98;1.58;;;;;;;20.96;31.67;100166.31;5097925;28;20050;-77
2021/06/05 05:27:46;;;;;;;3.60;1.63;;;;;;;21.02;31.70;100160.16;5114890;28;20173;-79
2021/06/05 05:30:16;;;;;;;6.53;1.50;;;;;;;21.02;32.17;100165.59;5097992;28;20401;-78
2021/06/05 05:32:42;;;;;;;5.68;1.30;;;;;;;21.01;32.11;100153.03;5097955;28;20043;-79
2021/06/05 05:35:08;;;;;;;8.88;1.48;;;;;;;20.95;31.20;100145.59;5097697;28;20588;-78
2021/06/05 05:37:35;;;;;;;6.10;1.23;;;;;;;20.70;32.30;100143.88;5098753;28;20126;-78
2021/06/05 05:40:01;;;;;;;11.30;1.27;;;;;;;20.68;33.12;100148.59;5065337;28;20161;-80
2021/06/05 05:42:27;;;;;;;9.48;1.63;;;;;;;20.46;33.10;100152.78;5098184;28;20079;-78
2021/06/05 05:44:53;;;;;;;4.93;1.42;;;;;;;19.93;33.37;100149.41;5116121;28;20104;-79
2021/06/05 05:47:19;;;;;;;4.10;1.30;;;;;;;19.56;33.08;100156.00;5114478;28;20524;-79
2021/06/05 05:49:45;;;;;;;22.83;1.80;;;;;;;19.42;33.99;100151.16;5116301;28;20043;-80
2021/06/05 05:52:11;;;;;;;6.15;1.60;;;;;;;19.49;34.59;100144.09;5080835;28;20060;-82
2021/06/05 05:54:37;;;;;;;6.85;1.50;;;;;;;19.77;34.82;100147.47;5064523;28;20043;-80
2021/06/05 05:57:03;;;;;;;2.67;1.25;;;;;;;19.71;33.70;100142.72;5080918;28;20063;-79
2021/06/05 05:59:29;;;;;;;10.38;1.70;;;;;;;19.71;34.08;100149.97;5080402;28;20031;-78
2021/06/05 06:01:55;;;;;;;5.07;1.30;;;;;;;20.00;34.59;100144.19;5080167;28;20069;-78
2021/06/05 06:04:21;;;;;;;8.35;1.58;;;;;;;19.86;34.21;100146.53;5115743;28;20075;-79
2021/06/05 06:06:47;;;;;;;9.80;1.42;;;;;;;19.68;34.16;100142.19;5115567;28;20075;-79
2021/06/05 06:09:14;;;;;;;6.63;2.30;;;;;;;20.06;34.59;100144.38;5080399;28;20566;-79
2021/06/05 06:11:43;;;;;;;9.77;1.27;;;;;;;20.53;33.96;100132.97;5115152;28;20054;-77
2021/06/05 06:14:10;;;;;;;3.78;1.40;;;;;;;20.95;33.59;100139.28;5097206;28;20494;-81
2021/06/05 06:16:36;;;;;;;9.35;1.30;;;;;;;21.06;32.51;100137.09;5063799;28;20126;-81
2021/06/05 06:19:02;;;;;;;7.88;1.70;;;;;;;21.10;33.32;100137.59;5080262;28;20142;-78
2021/06/05 06:21:28;;;;;;;12.90;1.52;;;;;;;21.29;32.46;100145.38;5097174;28;20126;-78
2021/06/05 06:23:54;;;;;;;5.13;1.30;;;;;;;21.36;32.21;100145.56;5096897;28;20398;-77
2021/06/05 06:26:28;;;;;;;3.63;1.83;;;;;;;21.52;32.43;100148.25;5079519;28;20054;-78
2021/06/05 06:28:55;;;;;;;3.80;1.60;;;;;;;21.83;31.71;100145.59;5063414;28;20071;-78
2021/06/05 06:31:22;;;;;;;5.05;1.33;;;;;;;21.81;31.73;100136.78;5079987;28;20402;-77
2021/06/05 06:33:48;;;;;;;6.22;1.35;;;;;;;22.02;31.84;100152.50;5114713;28;20486;-78
2021/06/05 06:36:14;;;;;;;5.47;1.35;;;;;;;22.30;30.43;100149.31;5114432;28;20127;-78
2021/06/05 06:38:42;;;;;;;8.25;1.73;;;;;;;22.21;31.13;100150.38;5096492;28;20065;-78
2021/06/05 06:41:17;;;;;;;4.70;1.35;;;;;;;22.45;31.13;100152.97;5079498;28;20049;-80
2021/06/05 06:43:44;;;;;;;6.45;1.50;;;;;;;22.55;30.77;100147.28;5064258;28;20052;-77
2021/06/05 06:46:13;;;;;;;8.52;1.33;;;;;;;22.77;30.55;100146.44;5063264;28;20050;-77
2021/06/05 06:48:39;;;;;;;6.95;1.20;;;;;;;22.66;30.75;100149.59;5079354;28;20194;-76
2021/06/05 06:51:05;;;;;;;13.13;1.20;;;;;;;23.00;30.66;100146.47;5095992;28;20040;-77
2021/06/05 06:53:32;;;;;;;6.20;1.10;;;;;;;23.13;29.67;100144.97;5114603;28;20043;-79
2021/06/05 06:55:58;;;;;;;8.00;1.30;;;;;;;23.55;29.72;100144.41;5046069;28;20096;-77
2021/06/05 06:58:24;;;;;;;3.58;1.17;;;;;;;23.53;29.19;100141.00;5096563;28;20047;-78
2021/06/05 07:00:50;;;;;;;4.75;1.42;;;;;;;23.42;29.97;100145.03;5113022;28;20070;-78
2021/06/05 07:03:16;;;;;;;8.60;1.40;;;;;;;23.70;29.75;100141.72;5114329;28;20051;-78
2021/06/05 07:05:42;;;;;;;4.57;1.00;;;;;;;23.86;29.52;100141.50;5096265;28;20095;-78
2021/06/05 07:08:14;;;;;;;5.65;1.25;;;;;;;23.67;29.49;100142.91;5096045;28;20051;-78
2021/06/05 07:10:40;;;;;;;4.45;1.63;;;;;;;23.87;29.32;100143.19;5079002;28;20122;-78
2021/06/05 07:13:06;;;;;;;2.80;1.38;;;;;;;24.29;28.90;100148.97;5095574;28;20047;-79
2021/06/05 07:15:32;;;;;;;5.45;1.45;;;;;;;23.85;28.88;100148.00;5096190;28;20044;-78
2021/06/05 07:17:59;;;;;;;6.47;1.40;;;;;;;23.89;27.90;100152.06;5078943;28;20409;-77
2021/06/05 07:20:25;;;;;;;12.00;1.15;;;;;;;24.50;27.30;100148.19;5113890;28;20051;-77
2021/06/05 07:22:51;;;;;;;9.07;1.13;;;;;;;24.90;25.55;100144.81;5113999;28;20055;-78
2021/06/05 07:25:17;;;;;;;6.43;1.38;;;;;;;24.95;25.45;100147.81;5113571;28;20130;-78
2021/06/05 07:27:45;;;;;;;5.07;1.40;;;;;;;24.68;25.36;100146.72;5113992;28;20135;-79
2021/06/05 07:30:14;;;;;;;4.45;1.20;;;;;;;24.12;25.38;100157.38;5112309;28;20513;-78
2021/06/05 07:32:41;;;;;;;7.22;1.20;;;;;;;23.92;25.67;100151.69;5078706;28;20042;-79
2021/06/05 07:35:07;;;;;;;6.93;1.25;;;;;;;24.04;25.73;100151.19;5095531;28;20058;-78
2021/06/05 07:37:34;;;;;;;8.45;1.50;;;;;;;24.46;25.65;100150.47;5095423;28;20044;-78
2021/06/05 07:40:06;;;;;;;6.03;1.40;;;;;;;24.42;25.46;100141.81;5094705;28;20134;-79
2021/06/05 07:42:34;;;;;;;8.02;1.40;;;;;;;24.32;24.98;100143.97;5078080;28;20067;-79
2021/06/05 07:45:00;;;;;;;4.25;1.40;;;;;;;24.20;24.28;100149.06;5095663;28;20055;-79
2021/06/05 07:47:27;;;;;;;5.68;1.10;;;;;;;23.93;24.64;100139.72;5095504;28;20517;-77
2021/06/05 07:49:53;;;;;;;1.55;0.90;;;;;;;23.98;24.48;100142.72;5078570;28;20039;-80
2021/06/05 07:52:23;;;;;;;4.30;1.20;;;;;;;23.86;25.17;100148.84;5094729;28;20147;-77
2021/06/05 07:54:54;;;;;;;4.72;1.20;;;;;;;23.62;25.19;100139.00;5112711;28;20043;-79
2021/06/05 07:57:20;;;;;;;4.55;1.20;;;;;;;23.57;25.64;100136.00;5095200;28;20043;-78
2021/06/05 07:59:46;;;;;;;3.58;1.10;;;;;;;23.21;26.06;100136.75;5095171;28;20036;-78
2021/06/05 08:02:13;;;;;;;3.90;1.10;;;;;;;23.43;26.20;100129.50;5061671;28;20039;-78
2021/06/05 08:04:39;;;;;;;6.80;1.15;;;;;;;23.84;26.48;100132.63;5113121;28;20051;-79
2021/06/05 08:07:05;;;;;;;6.05;1.20;;;;;;;23.66;26.86;100123.97;5113539;28;20560;-78
2021/06/05 08:09:31;;;;;;;3.10;0.90;;;;;;;23.69;26.92;100126.34;5111570;28;20042;-78
2021/06/05 08:11:58;;;;;;;4.55;1.50;;;;;;;24.04;27.09;100123.88;5095725;28;20515;-79
2021/06/05 08:14:24;;;;;;;5.22;1.00;;;;;;;24.29;27.35;100118.91;5126870;28;20466;-78
2021/06/05 08:16:50;;;;;;;5.75;1.23;;;;;;;24.47;27.05;100122.09;5113122;28;20044;-77
2021/06/05 08:19:15;;;;;;;13.25;2.20;;;;;;;24.51;27.40;100112.47;5113067;28;20130;-75
2021/06/05 08:21:43;;;;;;;6.10;1.52;;;;;;;24.44;27.32;100117.00;5094777;28;20071;-75
2021/06/05 08:24:10;;;;;;;10.95;1.30;;;;;;;24.78;27.23;100101.78;5094768;28;20040;-76
2021/06/05 08:26:36;;;;;;;3.60;1.30;;;;;;;25.05;26.32;100119.25;5094905;28;20128;-78
2021/06/05 08:29:02;;;;;;;8.57;1.60;;;;;;;25.43;26.65;100106.13;5112973;28;20075;-78
2021/06/05 08:31:27;;;;;;;8.57;1.20;;;;;;;25.73;25.95;100109.44;5094788;28;20051;-79
2021/06/05 08:33:53;;;;;;;7.80;1.45;;;;;;;26.08;25.52;100109.41;5094826;28;20130;-78
2021/06/05 08:36:22;;;;;;;7.30;0.90;;;;;;;26.22;25.05;100105.69;5112827;28;20043;-76
2021/06/05 08:38:48;;;;;;;6.55;1.23;;;;;;;26.27;25.10;100099.56;5094830;28;20040;-77
2021/06/05 08:41:22;;;;;;;1.83;0.93;;;;;;;26.02;24.80;100094.63;5077981;28;20047;-78
2021/06/05 08:44:02;;;;;;;5.28;1.33;;;;;;;25.84;25.33;100097.94;5112826;28;20133;-79
2021/06/05 08:46:30;;;;;;;8.45;1.30;;;;;;;25.83;25.39;100090.75;5080096;28;20058;-81
2021/06/05 08:48:58;;;;;;;4.82;1.10;;;;;;;25.92;25.57;100089.56;5078180;28;20047;-78
2021/06/05 08:51:32;;;;;;;10.13;1.70;;;;;;;25.47;26.22;100101.94;5096411;28;20051;-79
2021/06/05 08:54:07;;;;;;;3.55;1.10;;;;;;;25.22;26.52;100087.84;5116613;28;20059;-75
2021/06/05 08:56:33;;;;;;;11.00;1.25;;;;;;;25.15;26.97;100093.28;5049363;28;20074;-80
2021/06/05 08:59:00;;;;;;;5.22;1.00;;;;;;;25.13;26.67;100083.59;5065273;28;20589;-79
2021/06/05 09:01:42;;;;;;;4.47;1.30;;;;;;;25.10;26.77;100081.25;5065060;28;20126;-78
2021/06/05 09:04:14;;;;;;;8.20;1.50;;;;;;;25.30;26.91;100087.69;5065000;28;20101;-79
2021/06/05 09:06:40;;;;;;;8.68;1.25;;;;;;;25.35;26.36;100090.69;5081481;28;20050;-79
2021/06/05 09:09:12;;;;;;;5.22;2.25;;;;;;;25.02;26.61;100084.13;5116458;28;20036;-79
2021/06/05 09:11:38;;;;;;;3.90;1.45;;;;;;;24.80;27.47;100086.03;5065344;28;20053;-77
2021/06/05 09:14:04;;;;;;;7.93;1.60;;;;;;;24.51;27.95;100076.09;5081335;28;20498;-79
2021/06/05 09:16:40;;;;;;;5.15;1.40;;;;;;;24.41;28.44;100093.66;5081076;28;20042;-78
2021/06/05 09:19:06;;;;;;;5.35;1.90;;;;;;;24.05;29.32;100106.44;5098361;28;20546;-78
2021/06/05 09:21:47;;;;;;;8.98;1.40;;;;;;;23.50;29.75;100104.00;5115275;28;20185;-73
2021/06/05 09:24:20;;;;;;;6.80;1.40;;;;;;;23.10;30.09;100097.13;5081451;28;20055;-76
2021/06/05 09:27:00;;;;;;;7.53;1.85;;;;;;;22.54;31.88;100116.47;5064304;28;20502;-75
2021/06/05 09:29:26;;;;;;;6.03;1.67;;;;;;;22.10;32.83;100108.03;5082625;28;20043;-74
2021/06/05 09:31:58;;;;;;;12.45;1.83;;;;;;;22.13;33.53;100106.84;5080222;28;20051;-75
2021/06/05 09:34:30;;;;;;;9.50;1.77;;;;;;;21.83;33.92;100115.66;5047712;28;20089;-76
2021/06/05 09:36:56;;;;;;;12.38;2.13;;;;;;;21.53;34.63;100108.28;5064542;28;20091;-74
2021/06/05 09:39:43;;;;;;;12.45;1.80;;;;;;;21.69;34.35;100104.66;5080609;28;20047;-74
2021/06/05 09:42:11;;;;;;;5.00;1.90;;;;;;;21.61;35.04;100104.69;5046923;28;20036;-77
2021/06/05 09:44:46;;;;;;;6.83;1.87;;;;;;;21.29;35.26;100112.75;5046983;28;20561;-76
2021/06/05 09:47:22;;;;;;;16.67;2.53;;;;;;;20.92;35.90;100105.16;5081775;27;20066;-77
2021/06/05 09:49:53;;;;;;;10.32;2.50;;;;;;;20.74;35.60;100101.75;5097394;28;20051;-76
2021/06/05 09:52:25;;;;;;;7.28;2.30;;;;;;;20.69;35.98;100104.16;5109729;28;20067;-74
2021/06/05 09:54:56;;;;;;;5.28;2.60;;;;;;;20.56;36.01;100093.78;5115138;28;20042;-76
2021/06/05 09:57:31;;;;;;;7.22;2.00;;;;;;;20.43;36.84;100110.53;5079546;28;20044;-76
2021/06/05 10:00:28;;;;;;;7.07;2.08;;;;;;;20.36;37.28;100110.34;5080236;28;20422;-76
2021/06/05 10:03:24;;;;;;;2.47;1.58;;;;;;;20.23;37.54;100100.97;5095466;28;20051;-77
2021/06/05 10:05:50;;;;;;;2.47;1.75;;;;;;;20.00;38.44;100087.19;5081329;28;20123;-77
2021/06/05 10:08:39;;;;;;;2.70;1.73;;;;;;;19.92;38.57;100092.59;5063518;28;20040;-77
2021/06/05 10:11:06;;;;;;;2.35;1.70;;;;;;;19.92;38.63;100082.59;5079583;28;20047;-77
2021/06/05 10:13:34;;;;;;;5.22;1.85;;;;;;;19.93;39.45;100094.28;5080135;28;20043;-77
2021/06/05 10:16:06;;;;;;;10.95;1.58;;;;;;;19.78;40.23;100094.06;5079506;28;20096;-75
2021/06/05 10:18:44;;;;;;;9.60;2.70;;;;;;;19.73;40.90;100099.16;5080645;28;20047;-77
2021/06/05 10:21:21;;;;;;;9.00;3.05;;;;;;;19.65;40.75;100111.66;5063936;28;20062;-78
2021/06/05 10:23:51;;;;;;;8.45;2.90;;;;;;;19.23;42.00;100103.44;5079571;28;20402;-77
2021/06/05 10:26:34;;;;;;;15.27;3.38;;;;;;;19.09;42.77;100104.88;5062904;28;20050;-76
2021/06/05 10:29:04;;;;;;;7.03;4.00;;;;;;;18.95;42.63;100102.72;5046402;28;20061;-77
2021/06/05 10:31:30;;;;;;;8.25;3.95;;;;;;;19.10;42.80;100100.28;5114308;28;20039;-77
2021/06/05 10:34:32;;;;;;;6.43;4.00;;;;;;;19.10;42.53;100098.44;5096210;28;20047;-76
2021/06/05 10:36:58;;;;;;;8.60;4.00;;;;;;;19.18;41.93;100103.03;5095718;28;20052;-76
2021/06/05 10:39:29;;;;;;;8.18;3.30;;;;;;;19.17;40.51;100087.81;5079378;28;20510;-76
2021/06/05 10:42:03;;;;;;;10.77;4.60;;;;;;;19.23;41.09;100086.34;5062772;28;20044;-77
2021/06/05 10:44:29;;;;;;;4.13;3.00;;;;;;;19.47;40.97;100093.75;5064720;27;20039;-76
2021/06/05 10:46:58;;;;;;;3.45;1.70;;;;;;;19.62;39.84;100094.84;5088065;28;20040;-77
2021/06/05 10:49:31;;;;;;;2.17;1.65;;;;;;;19.87;39.46;100091.22;5079016;28;20134;-77
2021/06/05 10:52:24;;;;;;;10.52;1.88;;;;;;;20.11;38.93;100095.88;5062364;28;20483;-78
2021/06/05 10:54:52;;;;;;;9.52;1.83;;;;;;;20.37;38.85;100089.47;5080031;28;20051;-76
2021/06/05 10:57:24;;;;;;;9.65;1.80;;;;;;;20.64;38.61;100095.63;5062353;28;20052;-76
2021/06/05 11:00:20;;;;;;;4.30;1.77;;;;;;;20.85;38.69;100094.13;5062495;28;20043;-77
2021/06/05 11:02:48;;;;;;;4.03;2.20;;;;;;;21.06;39.16;100090.88;5077990;28;20055;-77
2021/06/05 11:05:16;;;;;;;5.38;2.00;;;;;;;21.38;38.86;100093.72;5078721;28;20414;-77
2021/06/05 11:07:43;;;;;;;3.72;1.60;;;;;;;21.61;38.33;100104.69;5095721;28;20130;-76
2021/06/05 11:10:09;;;;;;;5.10;1.58;;;;;;;21.75;36.86;100098.53;5095465;28;20043;-76
2021/06/05 11:12:35;;;;;;;2.63;1.70;;;;;;;21.75;35.93;100093.06;5078478;28;20031;-75
2021/06/05 11:15:01;;;;;;;5.20;2.00;;;;;;;21.92;35.84;100097.41;5123109;27;20039;-75
2021/06/05 11:17:37;;;;;;;6.78;1.70;;;;;;;22.12;35.26;100086.94;5115730;27;20103;-74
2021/06/05 11:20:07;;;;;;;6.53;1.90;;;;;;;22.18;36.10;100099.84;5116135;27;20135;-78
2021/06/05 11:22:52;;;;;;;6.72;2.10;;;;;;;22.31;35.97;100096.56;5098893;27;20050;-76
2021/06/05 11:25:43;;;;;;;10.10;2.33;;;;;;;22.14;36.34;100094.94;5116166;27;20134;-75
2021/06/05 11:28:31;;;;;;;5.63;2.35;;;;;;;21.95;36.58;100091.59;5082920;27;20053;-77
2021/06/05 11:30:57;;;;;;;7.50;2.07;;;;;;;21.93;36.76;100088.22;5099821;27;20088;-76
2021/06/05 11:33:40;;;;;;;17.60;2.13;;;;;;;21.90;37.31;100083.13;5114331;27;20336;-76
2021/06/05 11:36:45;;;;;;;5.32;2.22;;;;;;;21.99;37.02;100083.94;5078452;28;20395;-76